sensor_id;sensor_type;location;lat;lon;timestamp;P1;durP1;ratioP1;P2;durP2;ratioP2
13366;SDS011;6752;52.612;13.630;2022-11-20T00:01:38;33.58;;;25.45;;
13366;SDS011;6752;52.612;13.630;2022-11-20T00:06:41;35.72;;;26.25;;
13366;SDS011;6752;52.612;13.630;2022-11-20T00:11:43;40.12;;;27.85;;
13366;SDS011;6752;52.612;13.630;2022-11-20T00:16:45;42.00;;;28.52;;
13366;SDS011;6752;52.612;13.630;2022-11-20T00:21:48;38.13;;;27.00;;
13366;SDS011;6752;52.612;13.630;2022-11-20T00:26:50;39.38;;;29.27;;
13366;SDS011;6752;52.612;13.630;2022-11-20T00:31:52;42.38;;;28.23;;
13366;SDS011;6752;52.612;13.630;2022-11-20T00:36:55;42.05;;;27.40;;
13366;SDS011;6752;52.612;13.630;2022-11-20T00:41:57;41.67;;;29.02;;
13366;SDS011;6752;52.612;13.630;2022-11-20T00:47:00;34.25;;;29.42;;
13366;SDS011;6752;52.612;13.630;2022-11-20T00:52:02;34.33;;;26.62;;
13366;SDS011;6752;52.612;13.630;2022-11-20T00:57:04;32.95;;;24.35;;
13366;SDS011;6752;52.612;13.630;2022-11-20T01:02:07;41.05;;;26.05;;
13366;SDS011;6752;52.612;13.630;2022-11-20T01:12:11;41.30;;;26.50;;
13366;SDS011;6752;52.612;13.630;2022-11-20T01:17:13;35.50;;;24.00;;
13366;SDS011;6752;52.612;13.630;2022-11-20T01:22:16;37.92;;;25.75;;
13366;SDS011;6752;52.612;13.630;2022-11-20T01:27:18;38.63;;;25.17;;
13366;SDS011;6752;52.612;13.630;2022-11-20T01:32:21;39.58;;;25.90;;
13366;SDS011;6752;52.612;13.630;2022-11-20T01:37:23;37.42;;;25.98;;
13366;SDS011;6752;52.612;13.630;2022-11-20T01:42:25;36.50;;;23.98;;
13366;SDS011;6752;52.612;13.630;2022-11-20T01:47:46;37.47;;;25.20;;
13366;SDS011;6752;52.612;13.630;2022-11-20T01:52:54;32.90;;;27.98;;
13366;SDS011;6752;52.612;13.630;2022-11-20T01:57:50;34.70;;;23.38;;
13366;SDS011;6752;52.612;13.630;2022-11-20T02:03:00;39.22;;;26.02;;
13366;SDS011;6752;52.612;13.630;2022-11-20T02:08:07;34.33;;;25.37;;
13366;SDS011;6752;52.612;13.630;2022-11-20T02:13:09;35.13;;;27.58;;
13366;SDS011;6752;52.612;13.630;2022-11-20T02:18:30;37.70;;;23.67;;
13366;SDS011;6752;52.612;13.630;2022-11-20T02:23:39;45.22;;;26.77;;
13366;SDS011;6752;52.612;13.630;2022-11-20T02:28:40;37.08;;;24.37;;
13366;SDS011;6752;52.612;13.630;2022-11-20T02:33:45;41.95;;;25.80;;
13366;SDS011;6752;52.612;13.630;2022-11-20T02:38:48;39.20;;;25.30;;
13366;SDS011;6752;52.612;13.630;2022-11-20T02:43:53;37.85;;;27.05;;
13366;SDS011;6752;52.612;13.630;2022-11-20T02:48:56;46.42;;;30.02;;
13366;SDS011;6752;52.612;13.630;2022-11-20T02:53:58;36.38;;;29.05;;
13366;SDS011;6752;52.612;13.630;2022-11-20T02:59:01;34.40;;;23.50;;
13366;SDS011;6752;52.612;13.630;2022-11-20T03:04:06;37.40;;;24.00;;
13366;SDS011;6752;52.612;13.630;2022-11-20T03:09:08;35.15;;;22.48;;
13366;SDS011;6752;52.612;13.630;2022-11-20T03:14:14;37.03;;;24.67;;
13366;SDS011;6752;52.612;13.630;2022-11-20T03:19:16;36.53;;;23.30;;
13366;SDS011;6752;52.612;13.630;2022-11-20T03:24:21;37.55;;;24.90;;
13366;SDS011;6752;52.612;13.630;2022-11-20T03:29:23;39.33;;;26.60;;
13366;SDS011;6752;52.612;13.630;2022-11-20T03:34:29;38.55;;;28.67;;
13366;SDS011;6752;52.612;13.630;2022-11-20T03:39:31;33.10;;;25.45;;
13366;SDS011;6752;52.612;13.630;2022-11-20T03:44:37;43.08;;;28.38;;
13366;SDS011;6752;52.612;13.630;2022-11-20T03:49:39;42.70;;;28.60;;
13366;SDS011;6752;52.612;13.630;2022-11-20T03:54:44;46.00;;;29.23;;
13366;SDS011;6752;52.612;13.630;2022-11-20T03:59:47;41.08;;;27.77;;
13366;SDS011;6752;52.612;13.630;2022-11-20T04:04:52;44.42;;;28.80;;
13366;SDS011;6752;52.612;13.630;2022-11-20T04:09:54;44.47;;;27.80;;
13366;SDS011;6752;52.612;13.630;2022-11-20T04:15:00;44.33;;;28.45;;
13366;SDS011;6752;52.612;13.630;2022-11-20T04:20:02;42.62;;;28.05;;
13366;SDS011;6752;52.612;13.630;2022-11-20T04:25:05;37.40;;;26.33;;
13366;SDS011;6752;52.612;13.630;2022-11-20T04:30:07;41.20;;;27.77;;
13366;SDS011;6752;52.612;13.630;2022-11-20T04:35:12;49.47;;;30.67;;
13366;SDS011;6752;52.612;13.630;2022-11-20T04:40:15;44.50;;;30.12;;
13366;SDS011;6752;52.612;13.630;2022-11-20T04:45:20;50.38;;;31.50;;
13366;SDS011;6752;52.612;13.630;2022-11-20T04:50:22;44.67;;;28.30;;
13366;SDS011;6752;52.612;13.630;2022-11-20T04:55:24;51.25;;;33.10;;
13366;SDS011;6752;52.612;13.630;2022-11-20T05:00:27;47.80;;;29.10;;
13366;SDS011;6752;52.612;13.630;2022-11-20T05:05:35;50.53;;;30.35;;
13366;SDS011;6752;52.612;13.630;2022-11-20T05:10:38;41.42;;;28.45;;
13366;SDS011;6752;52.612;13.630;2022-11-20T05:15:43;44.53;;;29.63;;
13366;SDS011;6752;52.612;13.630;2022-11-20T05:20:45;77.40;;;47.05;;
13366;SDS011;6752;52.612;13.630;2022-11-20T05:25:54;48.60;;;32.40;;
13366;SDS011;6752;52.612;13.630;2022-11-20T05:30:56;41.78;;;35.67;;
13366;SDS011;6752;52.612;13.630;2022-11-20T05:41:10;57.40;;;35.80;;
13366;SDS011;6752;52.612;13.630;2022-11-20T05:46:12;37.70;;;30.73;;
13366;SDS011;6752;52.612;13.630;2022-11-20T05:51:17;40.72;;;27.60;;
13366;SDS011;6752;52.612;13.630;2022-11-20T05:56:19;35.45;;;24.77;;
13366;SDS011;6752;52.612;13.630;2022-11-20T06:06:25;37.20;;;26.02;;
13366;SDS011;6752;52.612;13.630;2022-11-20T06:11:30;42.58;;;28.42;;
13366;SDS011;6752;52.612;13.630;2022-11-20T06:16:33;39.03;;;26.50;;
13366;SDS011;6752;52.612;13.630;2022-11-20T06:26:40;43.30;;;29.12;;
13366;SDS011;6752;52.612;13.630;2022-11-20T06:31:45;50.83;;;32.30;;
13366;SDS011;6752;52.612;13.630;2022-11-20T06:36:51;50.75;;;31.33;;
13366;SDS011;6752;52.612;13.630;2022-11-20T06:41:53;47.10;;;30.33;;
13366;SDS011;6752;52.612;13.630;2022-11-20T06:46:56;42.03;;;28.85;;
13366;SDS011;6752;52.612;13.630;2022-11-20T06:52:01;40.95;;;27.75;;
13366;SDS011;6752;52.612;13.630;2022-11-20T06:57:04;45.03;;;28.87;;
13366;SDS011;6752;52.612;13.630;2022-11-20T07:02:09;38.05;;;27.37;;
13366;SDS011;6752;52.612;13.630;2022-11-20T07:07:08;43.90;;;28.60;;
13366;SDS011;6752;52.612;13.630;2022-11-20T07:12:11;41.95;;;29.73;;
13366;SDS011;6752;52.612;13.630;2022-11-20T07:17:13;41.42;;;28.87;;
13366;SDS011;6752;52.612;13.630;2022-11-20T07:22:16;44.50;;;30.88;;
13366;SDS011;6752;52.612;13.630;2022-11-20T07:27:19;47.05;;;29.65;;
13366;SDS011;6752;52.612;13.630;2022-11-20T07:32:21;46.13;;;29.83;;
13366;SDS011;6752;52.612;13.630;2022-11-20T07:37:24;41.30;;;29.67;;
13366;SDS011;6752;52.612;13.630;2022-11-20T07:42:26;43.95;;;29.12;;
13366;SDS011;6752;52.612;13.630;2022-11-20T07:47:28;45.33;;;29.90;;
13366;SDS011;6752;52.612;13.630;2022-11-20T07:52:31;45.78;;;32.42;;
13366;SDS011;6752;52.612;13.630;2022-11-20T07:57:33;47.92;;;31.05;;
13366;SDS011;6752;52.612;13.630;2022-11-20T08:02:39;40.92;;;27.10;;
13366;SDS011;6752;52.612;13.630;2022-11-20T08:07:42;39.83;;;28.25;;
13366;SDS011;6752;52.612;13.630;2022-11-20T08:12:45;85.95;;;52.17;;
13366;SDS011;6752;52.612;13.630;2022-11-20T08:18:09;49.90;;;34.35;;
13366;SDS011;6752;52.612;13.630;2022-11-20T08:23:10;39.00;;;28.42;;
13366;SDS011;6752;52.612;13.630;2022-11-20T08:28:13;42.62;;;29.17;;
13366;SDS011;6752;52.612;13.630;2022-11-20T08:33:15;42.80;;;30.17;;
13366;SDS011;6752;52.612;13.630;2022-11-20T08:38:17;38.47;;;27.02;;
13366;SDS011;6752;52.612;13.630;2022-11-20T08:43:20;42.62;;;26.52;;
13366;SDS011;6752;52.612;13.630;2022-11-20T08:48:22;38.20;;;29.10;;
13366;SDS011;6752;52.612;13.630;2022-11-20T08:53:25;40.83;;;29.60;;
13366;SDS011;6752;52.612;13.630;2022-11-20T08:58:27;34.63;;;25.17;;
13366;SDS011;6752;52.612;13.630;2022-11-20T09:03:29;38.42;;;25.92;;
13366;SDS011;6752;52.612;13.630;2022-11-20T09:08:32;44.58;;;28.60;;
13366;SDS011;6752;52.612;13.630;2022-11-20T09:18:39;38.58;;;26.65;;
13366;SDS011;6752;52.612;13.630;2022-11-20T09:23:41;52.33;;;30.40;;
13366;SDS011;6752;52.612;13.630;2022-11-20T09:28:44;38.00;;;27.45;;
13366;SDS011;6752;52.612;13.630;2022-11-20T09:33:49;44.60;;;28.87;;
13366;SDS011;6752;52.612;13.630;2022-11-20T09:38:51;35.58;;;25.40;;
13366;SDS011;6752;52.612;13.630;2022-11-20T09:43:58;39.20;;;26.05;;
13366;SDS011;6752;52.612;13.630;2022-11-20T09:49:16;38.35;;;27.87;;
13366;SDS011;6752;52.612;13.630;2022-11-20T09:54:21;39.20;;;32.00;;
13366;SDS011;6752;52.612;13.630;2022-11-20T10:04:42;36.63;;;25.12;;
13366;SDS011;6752;52.612;13.630;2022-11-20T10:09:53;36.65;;;23.58;;
13366;SDS011;6752;52.612;13.630;2022-11-20T10:15:10;33.50;;;24.42;;
13366;SDS011;6752;52.612;13.630;2022-11-20T10:20:19;33.38;;;23.85;;
13366;SDS011;6752;52.612;13.630;2022-11-20T10:25:24;35.28;;;23.73;;
13366;SDS011;6752;52.612;13.630;2022-11-20T10:30:25;35.10;;;29.15;;
13366;SDS011;6752;52.612;13.630;2022-11-20T10:35:39;34.40;;;24.75;;
13366;SDS011;6752;52.612;13.630;2022-11-20T10:40:46;33.75;;;22.58;;
13366;SDS011;6752;52.612;13.630;2022-11-20T10:56:20;32.40;;;28.33;;
13366;SDS011;6752;52.612;13.630;2022-11-20T11:01:38;36.15;;;23.33;;
13366;SDS011;6752;52.612;13.630;2022-11-20T11:06:40;33.70;;;25.77;;
13366;SDS011;6752;52.612;13.630;2022-11-20T11:11:44;33.20;;;25.08;;
13366;SDS011;6752;52.612;13.630;2022-11-20T11:21:53;30.80;;;22.67;;
13366;SDS011;6752;52.612;13.630;2022-11-20T11:26:58;35.22;;;24.50;;
13366;SDS011;6752;52.612;13.630;2022-11-20T11:32:06;37.75;;;27.02;;
13366;SDS011;6752;52.612;13.630;2022-11-20T11:37:15;35.15;;;24.95;;
13366;SDS011;6752;52.612;13.630;2022-11-20T11:42:13;36.17;;;25.80;;
13366;SDS011;6752;52.612;13.630;2022-11-20T11:47:25;36.33;;;24.90;;
13366;SDS011;6752;52.612;13.630;2022-11-20T11:52:32;29.98;;;25.17;;
13366;SDS011;6752;52.612;13.630;2022-11-20T11:57:42;31.80;;;23.80;;
13366;SDS011;6752;52.612;13.630;2022-11-20T12:18:22;34.67;;;25.88;;
13366;SDS011;6752;52.612;13.630;2022-11-20T12:33:53;36.40;;;24.37;;
13366;SDS011;6752;52.612;13.630;2022-11-20T12:49:51;36.30;;;24.73;;
13366;SDS011;6752;52.612;13.630;2022-11-20T13:00:23;30.27;;;23.40;;
13366;SDS011;6752;52.612;13.630;2022-11-20T13:10:43;29.63;;;22.65;;
13366;SDS011;6752;52.612;13.630;2022-11-20T13:15:56;35.25;;;24.90;;
13366;SDS011;6752;52.612;13.630;2022-11-20T13:20:56;30.97;;;26.77;;
13366;SDS011;6752;52.612;13.630;2022-11-20T13:26:06;31.85;;;26.17;;
13366;SDS011;6752;52.612;13.630;2022-11-20T13:31:11;26.90;;;23.60;;
13366;SDS011;6752;52.612;13.630;2022-11-20T13:36:22;25.77;;;19.70;;
13366;SDS011;6752;52.612;13.630;2022-11-20T13:41:30;25.67;;;21.90;;
13366;SDS011;6752;52.612;13.630;2022-11-20T13:46:40;25.33;;;22.00;;
13366;SDS011;6752;52.612;13.630;2022-11-20T13:51:46;26.08;;;19.08;;
13366;SDS011;6752;52.612;13.630;2022-11-20T13:57:10;27.95;;;19.67;;
13366;SDS011;6752;52.612;13.630;2022-11-20T14:02:13;24.63;;;16.52;;
13366;SDS011;6752;52.612;13.630;2022-11-20T14:07:16;20.83;;;14.65;;
13366;SDS011;6752;52.612;13.630;2022-11-20T14:12:21;23.98;;;17.67;;
13366;SDS011;6752;52.612;13.630;2022-11-20T14:22:34;27.17;;;19.60;;
13366;SDS011;6752;52.612;13.630;2022-11-20T14:27:40;28.00;;;20.77;;
13366;SDS011;6752;52.612;13.630;2022-11-20T14:32:42;28.27;;;20.88;;
13366;SDS011;6752;52.612;13.630;2022-11-20T14:37:44;27.98;;;19.52;;
13366;SDS011;6752;52.612;13.630;2022-11-20T14:42:49;33.50;;;21.62;;
13366;SDS011;6752;52.612;13.630;2022-11-20T14:47:52;27.48;;;20.58;;
13366;SDS011;6752;52.612;13.630;2022-11-20T14:52:59;31.90;;;21.10;;
13366;SDS011;6752;52.612;13.630;2022-11-20T14:57:57;31.73;;;23.10;;
13366;SDS011;6752;52.612;13.630;2022-11-20T15:03:01;32.53;;;22.35;;
13366;SDS011;6752;52.612;13.630;2022-11-20T15:08:05;35.70;;;23.98;;
13366;SDS011;6752;52.612;13.630;2022-11-20T15:13:11;27.35;;;22.02;;
13366;SDS011;6752;52.612;13.630;2022-11-20T15:18:19;30.92;;;21.30;;
13366;SDS011;6752;52.612;13.630;2022-11-20T15:23:23;28.50;;;21.12;;
13366;SDS011;6752;52.612;13.630;2022-11-20T15:33:33;30.40;;;21.20;;
13366;SDS011;6752;52.612;13.630;2022-11-20T15:38:36;27.37;;;20.77;;
13366;SDS011;6752;52.612;13.630;2022-11-20T15:43:38;29.73;;;20.48;;
13366;SDS011;6752;52.612;13.630;2022-11-20T15:48:50;26.42;;;19.10;;
13366;SDS011;6752;52.612;13.630;2022-11-20T15:58:47;28.65;;;21.23;;
13366;SDS011;6752;52.612;13.630;2022-11-20T16:03:49;27.17;;;22.03;;
13366;SDS011;6752;52.612;13.630;2022-11-20T16:13:54;32.13;;;22.15;;
13366;SDS011;6752;52.612;13.630;2022-11-20T16:19:14;31.87;;;21.85;;
13366;SDS011;6752;52.612;13.630;2022-11-20T16:24:17;27.73;;;20.50;;
13366;SDS011;6752;52.612;13.630;2022-11-20T16:29:19;29.10;;;19.25;;
13366;SDS011;6752;52.612;13.630;2022-11-20T16:34:24;27.48;;;21.40;;
13366;SDS011;6752;52.612;13.630;2022-11-20T16:39:26;26.58;;;20.98;;
13366;SDS011;6752;52.612;13.630;2022-11-20T16:44:32;30.25;;;22.20;;
13366;SDS011;6752;52.612;13.630;2022-11-20T16:49:34;31.25;;;22.62;;
13366;SDS011;6752;52.612;13.630;2022-11-20T16:54:39;33.30;;;22.70;;
13366;SDS011;6752;52.612;13.630;2022-11-20T16:59:41;32.65;;;22.42;;
13366;SDS011;6752;52.612;13.630;2022-11-20T17:04:44;27.37;;;23.20;;
13366;SDS011;6752;52.612;13.630;2022-11-20T17:09:47;34.90;;;21.60;;
13366;SDS011;6752;52.612;13.630;2022-11-20T17:14:51;27.25;;;21.27;;
13366;SDS011;6752;52.612;13.630;2022-11-20T17:19:54;26.58;;;21.25;;
13366;SDS011;6752;52.612;13.630;2022-11-20T17:24:59;35.13;;;24.52;;
13366;SDS011;6752;52.612;13.630;2022-11-20T17:30:01;34.80;;;24.90;;
13366;SDS011;6752;52.612;13.630;2022-11-20T17:35:07;34.47;;;27.50;;
13366;SDS011;6752;52.612;13.630;2022-11-20T17:40:10;28.35;;;22.02;;
13366;SDS011;6752;52.612;13.630;2022-11-20T17:45:12;29.15;;;23.17;;
13366;SDS011;6752;52.612;13.630;2022-11-20T17:50:15;26.58;;;18.98;;
13366;SDS011;6752;52.612;13.630;2022-11-20T17:55:20;26.58;;;20.23;;
13366;SDS011;6752;52.612;13.630;2022-11-20T18:00:23;27.83;;;21.50;;
13366;SDS011;6752;52.612;13.630;2022-11-20T18:05:28;30.08;;;21.52;;
13366;SDS011;6752;52.612;13.630;2022-11-20T18:10:30;24.92;;;20.27;;
13366;SDS011;6752;52.612;13.630;2022-11-20T18:15:35;27.48;;;20.98;;
13366;SDS011;6752;52.612;13.630;2022-11-20T18:20:38;22.23;;;19.62;;
13366;SDS011;6752;52.612;13.630;2022-11-20T18:25:40;27.35;;;19.37;;
13366;SDS011;6752;52.612;13.630;2022-11-20T18:30:43;26.60;;;20.50;;
13366;SDS011;6752;52.612;13.630;2022-11-20T18:35:48;27.02;;;19.98;;
13366;SDS011;6752;52.612;13.630;2022-11-20T18:40:50;25.20;;;19.50;;
13366;SDS011;6752;52.612;13.630;2022-11-20T18:46:02;27.50;;;21.27;;
13366;SDS011;6752;52.612;13.630;2022-11-20T18:51:05;29.85;;;22.90;;
13366;SDS011;6752;52.612;13.630;2022-11-20T18:56:09;34.83;;;23.38;;
13366;SDS011;6752;52.612;13.630;2022-11-20T19:01:14;32.80;;;24.37;;
13366;SDS011;6752;52.612;13.630;2022-11-20T19:06:17;37.03;;;24.92;;
13366;SDS011;6752;52.612;13.630;2022-11-20T19:11:22;31.90;;;25.15;;
13366;SDS011;6752;52.612;13.630;2022-11-20T19:16:24;33.70;;;25.15;;
13366;SDS011;6752;52.612;13.630;2022-11-20T19:26:33;27.83;;;22.85;;
13366;SDS011;6752;52.612;13.630;2022-11-20T19:31:34;34.22;;;22.20;;
13366;SDS011;6752;52.612;13.630;2022-11-20T19:36:39;31.50;;;22.67;;
13366;SDS011;6752;52.612;13.630;2022-11-20T19:41:41;33.15;;;24.27;;
13366;SDS011;6752;52.612;13.630;2022-11-20T19:46:47;32.20;;;23.58;;
13366;SDS011;6752;52.612;13.630;2022-11-20T19:51:49;39.35;;;26.25;;
13366;SDS011;6752;52.612;13.630;2022-11-20T19:56:54;33.88;;;23.80;;
13366;SDS011;6752;52.612;13.630;2022-11-20T20:01:56;31.50;;;23.35;;
13366;SDS011;6752;52.612;13.630;2022-11-20T20:07:02;33.08;;;23.83;;
13366;SDS011;6752;52.612;13.630;2022-11-20T20:12:07;31.45;;;24.67;;
13366;SDS011;6752;52.612;13.630;2022-11-20T20:17:12;30.23;;;22.00;;
13366;SDS011;6752;52.612;13.630;2022-11-20T20:22:14;30.98;;;21.98;;
13366;SDS011;6752;52.612;13.630;2022-11-20T20:27:20;30.37;;;22.85;;
13366;SDS011;6752;52.612;13.630;2022-11-20T20:32:22;32.85;;;22.73;;
13366;SDS011;6752;52.612;13.630;2022-11-20T20:37:27;30.55;;;22.02;;
13366;SDS011;6752;52.612;13.630;2022-11-20T20:42:30;27.67;;;22.05;;
13366;SDS011;6752;52.612;13.630;2022-11-20T20:47:36;32.25;;;21.92;;
13366;SDS011;6752;52.612;13.630;2022-11-20T20:52:37;32.30;;;22.83;;
13366;SDS011;6752;52.612;13.630;2022-11-20T21:02:44;32.85;;;23.27;;
13366;SDS011;6752;52.612;13.630;2022-11-20T21:07:49;36.40;;;25.08;;
13366;SDS011;6752;52.612;13.630;2022-11-20T21:13:11;38.35;;;27.33;;
13366;SDS011;6752;52.612;13.630;2022-11-20T21:18:17;34.70;;;26.83;;
13366;SDS011;6752;52.612;13.630;2022-11-20T21:23:21;39.17;;;26.85;;
13366;SDS011;6752;52.612;13.630;2022-11-20T21:28:23;37.83;;;27.60;;
13366;SDS011;6752;52.612;13.630;2022-11-20T21:33:34;35.55;;;26.73;;
13366;SDS011;6752;52.612;13.630;2022-11-20T21:38:31;32.95;;;25.27;;
13366;SDS011;6752;52.612;13.630;2022-11-20T21:43:36;42.40;;;27.37;;
13366;SDS011;6752;52.612;13.630;2022-11-20T21:48:39;42.62;;;28.60;;
13366;SDS011;6752;52.612;13.630;2022-11-20T21:53:44;38.13;;;26.42;;
13366;SDS011;6752;52.612;13.630;2022-11-20T21:58:46;36.42;;;25.00;;
13366;SDS011;6752;52.612;13.630;2022-11-20T22:03:49;29.05;;;22.30;;
13366;SDS011;6752;52.612;13.630;2022-11-20T22:08:51;25.62;;;22.87;;
13366;SDS011;6752;52.612;13.630;2022-11-20T22:13:53;23.92;;;20.12;;
13366;SDS011;6752;52.612;13.630;2022-11-20T22:19:16;35.70;;;24.75;;
13366;SDS011;6752;52.612;13.630;2022-11-20T22:24:19;37.05;;;25.35;;
13366;SDS011;6752;52.612;13.630;2022-11-20T22:29:21;40.42;;;25.33;;
13366;SDS011;6752;52.612;13.630;2022-11-20T22:34:23;42.05;;;28.87;;
13366;SDS011;6752;52.612;13.630;2022-11-20T22:39:25;38.00;;;26.27;;
13366;SDS011;6752;52.612;13.630;2022-11-20T22:44:28;34.42;;;25.95;;
13366;SDS011;6752;52.612;13.630;2022-11-20T22:49:30;40.90;;;26.37;;
13366;SDS011;6752;52.612;13.630;2022-11-20T22:54:32;39.80;;;28.77;;
13366;SDS011;6752;52.612;13.630;2022-11-20T22:59:35;44.17;;;29.80;;
13366;SDS011;6752;52.612;13.630;2022-11-20T23:04:37;41.25;;;28.92;;
13366;SDS011;6752;52.612;13.630;2022-11-20T23:09:40;48.28;;;31.92;;
13366;SDS011;6752;52.612;13.630;2022-11-20T23:14:42;53.83;;;34.97;;
13366;SDS011;6752;52.612;13.630;2022-11-20T23:19:44;49.38;;;30.75;;
13366;SDS011;6752;52.612;13.630;2022-11-20T23:24:47;56.05;;;34.45;;
13366;SDS011;6752;52.612;13.630;2022-11-20T23:39:53;54.65;;;34.83;;
13366;SDS011;6752;52.612;13.630;2022-11-20T23:44:56;56.85;;;35.08;;
13366;SDS011;6752;52.612;13.630;2022-11-20T23:49:58;59.72;;;37.47;;
13366;SDS011;6752;52.612;13.630;2022-11-20T23:55:01;62.45;;;38.28;;
